Time;durP1;ratioP1;P1;durP2;ratioP2;P2;SDS_P1;SDS_P2;PMS_P1;PMS_P2;Temp;Humidity;BMP_temperature;BMP_pressure;BME280_temperature;BME280_humidity;BME280_pressure;Samples;Min_cycle;Max_cycle;Signal;HPM_P1;HPM_P2
2021/08/25 00:01:56;;;;;;;;;6.00;6.00;;;;;;;;5047695;28;45592;-81
2021/08/25 00:04:21;;;;;;;;;7.00;7.00;;;;;;;;5039223;28;45699;-81
2021/08/25 00:06:47;;;;;;;;;10.00;7.33;;;;;;;;5042559;28;46562;-81
2021/08/25 00:09:12;;;;;;;;;8.33;6.00;;;;;;;;5051220;28;49204;-81
2021/08/25 00:11:37;;;;;;;;;8.33;7.00;;;;;;;;5042080;28;46049;-81
2021/08/25 00:14:02;;;;;;;;;7.50;6.00;;;;;;;;5047719;28;45532;-80
2021/08/25 00:16:27;;;;;;;;;8.00;7.00;;;;;;;;5047010;28;46439;-81
2021/08/25 00:18:53;;;;;;;;;6.67;5.33;;;;;;;;5044954;28;45817;-81
2021/08/25 00:21:18;;;;;;;;;10.50;8.25;;;;;;;;5045523;28;45618;-81
2021/08/25 00:23:43;;;;;;;;;7.50;5.00;;;;;;;;5044000;28;45658;-81
2021/08/25 00:26:08;;;;;;;;;6.00;6.00;;;;;;;;5043743;28;45881;-81
2021/08/25 00:28:35;;;;;;;;;8.33;6.00;;;;;;;;5046453;28;45576;-81
2021/08/25 00:31:00;;;;;;;;;5.50;5.00;;;;;;;;5038908;28;46647;-81
2021/08/25 00:33:25;;;;;;;;;5.50;5.00;;;;;;;;5047532;28;45861;-81
2021/08/25 00:35:50;;;;;;;;;9.00;5.67;;;;;;;;5042002;28;46582;-81
2021/08/25 00:38:15;;;;;;;;;10.00;6.00;;;;;;;;5043418;28;45573;-82
2021/08/25 00:40:43;;;;;;;;;6.00;6.00;;;;;;;;5048202;28;45550;-80
2021/08/25 00:43:09;;;;;;;;;6.50;6.50;;;;;;;;5044252;28;45683;-81
2021/08/25 00:45:39;;;;;;;;;7.00;6.00;;;;;;;;5044943;28;47133;-81
2021/08/25 00:48:05;;;;;;;;;8.25;4.00;;;;;;;;5047356;28;45811;-81
2021/08/25 00:50:30;;;;;;;;;5.50;5.00;;;;;;;;5043659;28;45660;-81
2021/08/25 00:52:56;;;;;;;;;5.00;5.00;;;;;;;;5047730;28;45714;-82
2021/08/25 00:55:21;;;;;;;;;5.67;5.67;;;;;;;;5026798;28;48586;-81
2021/08/25 00:57:46;;;;;;;;;8.00;5.00;;;;;;;;5044777;28;45955;-81
2021/08/25 01:00:12;;;;;;;;;7.00;5.50;;;;;;;;5047666;28;45940;-81
2021/08/25 01:02:38;;;;;;;;;7.25;5.00;;;;;;;;5069483;22;45681;-85
2021/08/25 01:05:04;;;;;;;;;5.67;5.67;;;;;;;;5042053;28;47711;-86
2021/08/25 01:07:31;;;;;;;;;6.50;5.00;;;;;;;;5037273;28;46009;-85
2021/08/25 01:09:56;;;;;;;;;8.00;5.00;;;;;;;;5047542;28;45745;-85
2021/08/25 01:12:22;;;;;;;;;7.75;6.00;;;;;;;;5050101;28;45552;-86
2021/08/25 01:14:47;;;;;;;;;6.00;4.75;;;;;;;;5046460;28;46398;-86
2021/08/25 01:17:13;;;;;;;;;2.00;2.00;;;;;;;;5048680;28;45604;-86
2021/08/25 01:19:45;;;;;;;;;10.00;6.00;;;;;;;;5047554;28;45504;-85
2021/08/25 01:22:10;;;;;;;;;6.75;5.00;;;;;;;;5041570;28;45545;-86
2021/08/25 01:24:36;;;;;;;;;8.00;4.67;;;;;;;;5040285;28;45535;-85
2021/08/25 01:27:02;;;;;;;;;6.00;5.00;;;;;;;;5044254;28;45954;-85
2021/08/25 01:29:28;;;;;;;;;5.50;5.00;;;;;;;;5046057;28;45532;-85
2021/08/25 01:31:54;;;;;;;;;5.50;5.00;;;;;;;;5043283;28;45746;-85
2021/08/25 01:34:19;;;;;;;;;7.00;4.75;;;;;;;;5041868;27;46445;-85
2021/08/25 01:36:47;;;;;;;;;6.50;4.50;;;;;;;;5041736;28;45465;-85
2021/08/25 01:39:12;;;;;;;;;7.00;6.00;;;;;;;;5043782;28;46531;-85
2021/08/25 01:41:37;;;;;;;;;5.00;5.00;;;;;;;;5041550;28;45630;-85
2021/08/25 01:44:03;;;;;;;;;6.00;5.00;;;;;;;;5038618;28;46479;-86
2021/08/25 01:46:30;;;;;;;;;8.75;8.00;;;;;;;;5044293;28;45721;-86
2021/08/25 01:48:56;;;;;;;;;6.00;5.00;;;;;;;;5045472;28;45859;-85
2021/08/25 01:51:21;;;;;;;;;7.00;5.75;;;;;;;;5046593;28;48083;-86
2021/08/25 01:53:47;;;;;;;;;9.00;6.00;;;;;;;;5047134;28;47246;-85
2021/08/25 01:56:12;;;;;;;;;6.75;6.75;;;;;;;;5038959;28;45504;-86
2021/08/25 01:58:39;;;;;;;;;6.00;5.00;;;;;;;;5043040;28;45545;-86
2021/08/25 02:01:05;;;;;;;;;7.25;5.50;;;;;;;;5043437;28;45454;-86
2021/08/25 02:03:30;;;;;;;;;7.75;7.00;;;;;;;;5042089;28;48277;-85
2021/08/25 02:05:56;;;;;;;;;10.00;6.00;;;;;;;;5047790;28;45574;-86
2021/08/25 02:08:21;;;;;;;;;9.00;6.67;;;;;;;;5042307;28;45549;-86
2021/08/25 02:10:46;;;;;;;;;9.67;7.33;;;;;;;;5045152;28;45478;-86
2021/08/25 02:13:11;;;;;;;;;5.00;4.00;;;;;;;;5041858;28;46273;-86
2021/08/25 02:15:36;;;;;;;;;7.67;6.00;;;;;;;;5047287;28;45924;-86
2021/08/25 02:18:02;;;;;;;;;9.67;6.00;;;;;;;;5036130;28;45539;-86
2021/08/25 02:20:27;;;;;;;;;9.00;6.00;;;;;;;;5044080;28;45414;-85
2021/08/25 02:22:52;;;;;;;;;8.00;5.33;;;;;;;;5037598;28;47275;-85
2021/08/25 02:25:17;;;;;;;;;7.50;6.00;;;;;;;;5045522;28;45493;-86
2021/08/25 02:27:42;;;;;;;;;6.00;6.00;;;;;;;;5043255;28;45548;-86
2021/08/25 02:30:08;;;;;;;;;5.33;5.33;;;;;;;;5038821;28;45701;-86
2021/08/25 02:32:33;;;;;;;;;7.00;5.50;;;;;;;;5043443;28;45464;-86
2021/08/25 02:34:58;;;;;;;;;7.00;5.00;;;;;;;;5041904;28;45589;-86
2021/08/25 02:37:23;;;;;;;;;6.33;4.33;;;;;;;;5041444;28;54177;-86
2021/08/25 02:39:49;;;;;;;;;9.00;7.00;;;;;;;;5044104;28;45489;-85
2021/08/25 02:42:14;;;;;;;;;7.00;6.00;;;;;;;;5049504;28;45456;-85
2021/08/25 02:44:39;;;;;;;;;7.00;6.00;;;;;;;;5045902;28;45496;-86
2021/08/25 02:47:04;;;;;;;;;11.00;7.00;;;;;;;;5039506;28;45486;-86
2021/08/25 02:49:30;;;;;;;;;6.00;5.75;;;;;;;;5037099;28;47450;-86
2021/08/25 02:51:55;;;;;;;;;6.00;5.00;;;;;;;;5040552;28;47139;-86
2021/08/25 02:54:20;;;;;;;;;5.00;5.00;;;;;;;;5045047;28;45283;-86
2021/08/25 02:56:45;;;;;;;;;5.00;5.00;;;;;;;;5041541;28;45578;-86
2021/08/25 02:59:10;;;;;;;;;5.00;5.00;;;;;;;;5043061;28;45339;-85
2021/08/25 03:01:36;;;;;;;;;6.00;6.00;;;;;;;;5041959;28;46735;-86
2021/08/25 03:04:01;;;;;;;;;7.00;5.33;;;;;;;;5040003;28;45457;-85
2021/08/25 03:06:26;;;;;;;;;6.33;6.00;;;;;;;;5042059;28;45351;-86
2021/08/25 03:08:51;;;;;;;;;7.00;4.33;;;;;;;;5041515;28;45551;-86
2021/08/25 03:11:16;;;;;;;;;7.67;6.33;;;;;;;;5050288;28;46479;-86
2021/08/25 03:13:42;;;;;;;;;7.67;5.33;;;;;;;;5049001;28;45350;-86
2021/08/25 03:16:07;;;;;;;;;10.00;5.75;;;;;;;;5046565;28;45476;-85
2021/08/25 03:18:32;;;;;;;;;8.25;6.00;;;;;;;;5044999;28;45323;-85
2021/08/25 03:20:58;;;;;;;;;7.67;6.00;;;;;;;;5042709;28;46129;-85
2021/08/25 03:23:23;;;;;;;;;8.00;6.00;;;;;;;;5042105;28;45481;-86
2021/08/25 03:25:48;;;;;;;;;6.25;5.75;;;;;;;;5044576;28;45477;-86
2021/08/25 03:28:14;;;;;;;;;7.00;5.25;;;;;;;;5041885;28;45758;-86
2021/08/25 03:30:39;;;;;;;;;13.50;8.00;;;;;;;;5045129;28;47223;-86
2021/08/25 03:33:05;;;;;;;;;6.00;6.00;;;;;;;;5050203;28;45413;-86
2021/08/25 03:35:30;;;;;;;;;6.25;5.75;;;;;;;;5036709;28;45851;-85
2021/08/25 03:37:56;;;;;;;;;11.25;6.00;;;;;;;;5048715;28;45873;-86
2021/08/25 03:40:21;;;;;;;;;13.67;9.00;;;;;;;;5042079;28;48207;-86
2021/08/25 03:42:46;;;;;;;;;7.33;7.33;;;;;;;;5046452;28;45442;-86
2021/08/25 03:45:12;;;;;;;;;9.00;7.00;;;;;;;;5051209;28;45268;-85
2021/08/25 03:47:37;;;;;;;;;8.25;6.50;;;;;;;;5038384;28;45532;-85
2021/08/25 03:50:02;;;;;;;;;6.00;6.00;;;;;;;;5042940;28;46541;-85
2021/08/25 03:52:27;;;;;;;;;11.75;7.00;;;;;;;;5038928;28;45481;-86
2021/08/25 03:54:53;;;;;;;;;8.00;5.25;;;;;;;;5042427;28;45675;-85
2021/08/25 03:57:18;;;;;;;;;7.67;5.00;;;;;;;;5048746;28;45641;-85
2021/08/25 03:59:43;;;;;;;;;9.00;6.67;;;;;;;;5046698;28;45570;-85
2021/08/25 04:02:08;;;;;;;;;7.67;6.67;;;;;;;;5047206;28;45493;-85
2021/08/25 04:04:33;;;;;;;;;9.00;7.25;;;;;;;;5042330;28;45975;-85
2021/08/25 04:06:59;;;;;;;;;8.67;6.00;;;;;;;;5040924;28;45405;-86
2021/08/25 04:09:24;;;;;;;;;11.50;5.50;;;;;;;;5036718;28;45543;-85
2021/08/25 04:11:49;;;;;;;;;8.33;8.33;;;;;;;;5039217;28;45670;-85
2021/08/25 04:14:14;;;;;;;;;6.00;6.00;;;;;;;;5037061;28;45636;-85
2021/08/25 04:16:39;;;;;;;;;9.00;6.00;;;;;;;;5038335;28;45511;-85
2021/08/25 04:19:04;;;;;;;;;7.00;7.00;;;;;;;;5040868;28;48165;-86
2021/08/25 04:21:30;;;;;;;;;11.00;7.00;;;;;;;;5036710;28;45327;-85
2021/08/25 04:23:55;;;;;;;;;7.25;5.00;;;;;;;;5042213;28;45848;-86
2021/08/25 04:26:20;;;;;;;;;11.33;8.00;;;;;;;;5036441;28;45470;-85
2021/08/25 04:28:45;;;;;;;;;7.67;6.33;;;;;;;;5037779;28;46249;-85
2021/08/25 04:31:11;;;;;;;;;6.33;6.00;;;;;;;;5036507;28;45684;-86
2021/08/25 04:33:36;;;;;;;;;8.25;7.50;;;;;;;;5036028;28;45607;-85
2021/08/25 04:36:02;;;;;;;;;10.67;6.00;;;;;;;;5042519;28;45352;-85
2021/08/25 04:38:27;;;;;;;;;7.00;7.00;;;;;;;;5036468;28;46130;-85
2021/08/25 04:40:53;;;;;;;;;8.33;6.00;;;;;;;;5049446;28;45936;-85
2021/08/25 04:43:19;;;;;;;;;8.50;7.00;;;;;;;;5045050;28;46074;-85
2021/08/25 04:45:44;;;;;;;;;10.00;7.25;;;;;;;;5040899;28;45593;-85
2021/08/25 04:48:09;;;;;;;;;9.00;6.67;;;;;;;;5037587;28;45794;-86
2021/08/25 04:50:34;;;;;;;;;8.00;7.00;;;;;;;;5035953;28;45598;-85
2021/08/25 04:52:59;;;;;;;;;9.00;7.00;;;;;;;;5037778;28;45604;-85
2021/08/25 04:55:25;;;;;;;;;8.25;6.50;;;;;;;;5040071;28;45548;-85
2021/08/25 04:57:50;;;;;;;;;8.33;6.00;;;;;;;;5043273;28;47070;-85
2021/08/25 05:00:15;;;;;;;;;8.33;8.00;;;;;;;;5043466;28;45578;-86
2021/08/25 05:02:40;;;;;;;;;11.50;7.00;;;;;;;;5045480;28;47475;-86
2021/08/25 05:05:06;;;;;;;;;7.25;7.00;;;;;;;;5042120;28;45476;-85
2021/08/25 05:07:31;;;;;;;;;13.25;7.75;;;;;;;;5043916;28;46266;-85
2021/08/25 05:09:56;;;;;;;;;12.50;7.00;;;;;;;;5043693;28;45366;-85
2021/08/25 05:12:21;;;;;;;;;6.33;5.67;;;;;;;;5048633;28;45386;-86
2021/08/25 05:14:47;;;;;;;;;12.00;10.33;;;;;;;;5047299;28;45449;-85
2021/08/25 05:17:12;;;;;;;;;12.00;5.67;;;;;;;;5043058;28;47154;-86
2021/08/25 05:19:37;;;;;;;;;8.00;7.67;;;;;;;;5049434;28;45541;-86
2021/08/25 05:27:12;;;;;;;;;9.25;8.50;;;;;;;;5532827;22;45841;-85
2021/08/25 05:29:37;;;;;;;;;8.33;7.00;;;;;;;;5064003;27;47339;-86
2021/08/25 05:32:03;;;;;;;;;9.00;7.00;;;;;;;;5071892;27;45462;-86
2021/08/25 05:34:28;;;;;;;;;9.25;8.00;;;;;;;;5055715;28;45725;-86
2021/08/25 05:36:53;;;;;;;;;9.67;8.67;;;;;;;;5070620;27;45630;-86
2021/08/25 05:39:18;;;;;;;;;8.00;7.00;;;;;;;;5069215;27;45526;-87
2021/08/25 05:41:44;;;;;;;;;13.00;8.00;;;;;;;;5066639;27;45477;-86
2021/08/25 05:44:09;;;;;;;;;8.50;7.00;;;;;;;;5067273;27;45495;-85
2021/08/25 05:46:34;;;;;;;;;9.67;8.67;;;;;;;;5162014;22;46177;-81
2021/08/25 05:49:00;;;;;;;;;7.75;7.75;;;;;;;;5050426;27;45876;-81
2021/08/25 05:51:25;;;;;;;;;9.25;8.00;;;;;;;;5059100;28;45431;-81
2021/08/25 05:53:52;;;;;;;;;11.50;8.75;;;;;;;;5051639;27;47325;-81
2021/08/25 05:56:17;;;;;;;;;12.50;7.50;;;;;;;;5056554;27;54522;-81
2021/08/25 05:58:42;;;;;;;;;12.00;10.00;;;;;;;;5057634;27;45755;-82
2021/08/25 06:01:07;;;;;;;;;7.67;7.33;;;;;;;;5057162;27;45691;-84
2021/08/25 06:03:33;;;;;;;;;7.50;6.00;;;;;;;;5061183;27;45638;-84
2021/08/25 06:05:58;;;;;;;;;11.00;8.00;;;;;;;;5061262;27;46562;-83
2021/08/25 06:08:23;;;;;;;;;10.75;8.00;;;;;;;;5313534;22;45960;-86
2021/08/25 06:10:48;;;;;;;;;10.75;8.50;;;;;;;;5030301;28;46264;-86
2021/08/25 06:13:14;;;;;;;;;12.33;8.00;;;;;;;;5010342;28;45680;-86
2021/08/25 06:15:39;;;;;;;;;8.00;8.00;;;;;;;;5030633;28;47982;-85
2021/08/25 06:18:04;;;;;;;;;9.75;7.75;;;;;;;;5047382;23;47990;-83
2021/08/25 06:20:29;;;;;;;;;9.00;9.00;;;;;;;;5066781;27;46369;-83
2021/08/25 06:22:55;;;;;;;;;8.33;8.00;;;;;;;;5073913;27;45662;-83
2021/08/25 06:25:20;;;;;;;;;10.00;9.00;;;;;;;;5066777;27;46356;-83
2021/08/25 06:27:45;;;;;;;;;9.50;9.00;;;;;;;;5069353;27;45496;-82
2021/08/25 06:30:11;;;;;;;;;9.50;9.50;;;;;;;;5088397;22;45803;-86
2021/08/25 06:32:36;;;;;;;;;12.75;10.25;;;;;;;;5045699;27;45533;-86
2021/08/25 06:35:01;;;;;;;;;9.00;8.00;;;;;;;;5071606;27;46169;-86
2021/08/25 06:37:27;;;;;;;;;9.75;9.50;;;;;;;;5077094;22;45469;-82
2021/08/25 06:39:52;;;;;;;;;9.00;7.00;;;;;;;;5062253;27;45808;-81
2021/08/25 06:42:17;;;;;;;;;10.67;9.33;;;;;;;;5048837;28;45564;-81
2021/08/25 06:44:42;;;;;;;;;8.00;7.00;;;;;;;;5063616;27;45567;-82
2021/08/25 06:49:37;;;;;;;;;9.75;8.00;;;;;;;;5037237;28;46964;-84
2021/08/25 06:52:02;;;;;;;;;8.50;8.00;;;;;;;;5029141;28;45590;-83
2021/08/25 06:54:27;;;;;;;;;10.50;7.75;;;;;;;;5044907;28;46445;-84
2021/08/25 06:56:52;;;;;;;;;8.00;7.00;;;;;;;;5040763;28;45594;-83
2021/08/25 06:59:18;;;;;;;;;9.00;7.75;;;;;;;;5049140;28;45691;-84
2021/08/25 07:01:43;;;;;;;;;8.00;5.50;;;;;;;;5040520;28;45604;-83
2021/08/25 07:04:08;;;;;;;;;9.25;7.00;;;;;;;;5056441;22;46154;-85
2021/08/25 07:06:33;;;;;;;;;7.75;7.75;;;;;;;;5017915;28;45993;-85
2021/08/25 07:08:59;;;;;;;;;9.00;8.00;;;;;;;;5031791;28;45083;-86
2021/08/25 07:11:24;;;;;;;;;8.50;8.00;;;;;;;;5036127;28;45376;-85
2021/08/25 07:13:49;;;;;;;;;10.00;6.67;;;;;;;;5034294;28;46208;-85
2021/08/25 07:16:16;;;;;;;;;8.00;6.67;;;;;;;;5064422;22;45657;-83
2021/08/25 07:18:43;;;;;;;;;6.50;6.00;;;;;;;;5065922;27;45395;-83
2021/08/25 07:21:09;;;;;;;;;7.00;7.00;;;;;;;;5064055;27;45948;-82
2021/08/25 07:23:34;;;;;;;;;9.00;8.00;;;;;;;;5069208;27;47912;-83
2021/08/25 07:25:59;;;;;;;;;9.00;7.00;;;;;;;;5078820;27;45400;-82
2021/08/25 07:28:24;;;;;;;;;6.75;4.50;;;;;;;;5086106;22;45935;-85
2021/08/25 07:30:50;;;;;;;;;9.00;7.33;;;;;;;;5067529;27;45640;-85
2021/08/25 07:33:16;;;;;;;;;8.67;7.00;;;;;;;;5071793;27;46364;-85
2021/08/25 07:35:45;;;;;;;;;10.00;7.00;;;;;;;;5071873;27;45540;-86
2021/08/25 07:40:46;;;;;;;;;7.75;7.00;;;;;;;;5021795;26;46299;-81
2021/08/25 07:43:11;;;;;;;;;11.67;8.00;;;;;;;;5044729;28;45724;-83
2021/08/25 07:45:37;;;;;;;;;7.75;7.75;;;;;;;;5046497;28;45469;-84
2021/08/25 07:48:02;;;;;;;;;7.75;6.00;;;;;;;;5053940;28;45616;-81
2021/08/25 07:50:27;;;;;;;;;8.00;7.25;;;;;;;;5044080;28;45552;-82
2021/08/25 07:52:53;;;;;;;;;9.33;7.67;;;;;;;;5047243;28;45524;-84
2021/08/25 07:55:18;;;;;;;;;8.00;7.75;;;;;;;;5041855;28;45706;-85
2021/08/25 07:57:43;;;;;;;;;11.00;8.00;;;;;;;;5041951;28;45587;-85
2021/08/25 08:00:09;;;;;;;;;8.25;8.25;;;;;;;;5064624;22;45670;-86
2021/08/25 08:02:34;;;;;;;;;8.50;8.00;;;;;;;;5067429;27;45564;-85
2021/08/25 08:05:00;;;;;;;;;9.00;7.75;;;;;;;;5065239;27;45339;-85
2021/08/25 08:07:25;;;;;;;;;7.00;7.00;;;;;;;;5071053;27;45533;-86
2021/08/25 08:09:50;;;;;;;;;10.33;8.00;;;;;;;;5074581;27;45275;-86
2021/08/25 08:12:15;;;;;;;;;9.00;7.00;;;;;;;;5064716;27;45599;-85
2021/08/25 08:14:41;;;;;;;;;13.00;9.00;;;;;;;;5069567;27;45493;-86
2021/08/25 08:17:06;;;;;;;;;9.50;8.00;;;;;;;;5070434;27;44821;-86
2021/08/25 08:19:33;;;;;;;;;11.25;9.75;;;;;;;;5077003;27;45350;-85
2021/08/25 08:21:59;;;;;;;;;12.25;9.00;;;;;;;;5075945;27;47277;-86
2021/08/25 08:24:25;;;;;;;;;10.50;8.00;;;;;;;;5067873;27;45406;-87
2021/08/25 08:26:50;;;;;;;;;9.00;9.00;;;;;;;;5070667;27;46030;-86
2021/08/25 08:29:15;;;;;;;;;9.33;9.33;;;;;;;;5065577;27;45499;-85
2021/08/25 08:31:40;;;;;;;;;8.25;5.50;;;;;;;;5067012;27;48423;-86
2021/08/25 08:34:06;;;;;;;;;7.50;7.25;;;;;;;;5072015;27;45512;-86
2021/08/25 08:36:31;;;;;;;;;10.00;8.00;;;;;;;;5061482;27;45646;-86
2021/08/25 08:38:56;;;;;;;;;9.00;8.00;;;;;;;;5072278;27;45417;-85
2021/08/25 08:41:21;;;;;;;;;10.75;9.00;;;;;;;;5070354;27;46797;-86
2021/08/25 08:43:48;;;;;;;;;9.00;8.00;;;;;;;;5063603;27;45531;-86
2021/08/25 08:46:14;;;;;;;;;9.75;9.00;;;;;;;;5069804;27;45431;-86
2021/08/25 08:48:39;;;;;;;;;10.25;8.00;;;;;;;;5069478;27;45290;-86
2021/08/25 08:51:04;;;;;;;;;10.25;9.50;;;;;;;;5062530;27;47079;-85
2021/08/25 08:53:30;;;;;;;;;15.00;9.00;;;;;;;;5066837;27;45825;-85
2021/08/25 08:55:55;;;;;;;;;9.00;9.00;;;;;;;;5073231;27;45433;-86
2021/08/25 09:00:50;;;;;;;;;10.25;9.50;;;;;;;;5014728;28;45553;-84
2021/08/25 09:03:34;;;;;;;;;5.50;5.50;;;;;;;;5006396;28;45782;-82
2021/08/25 09:09:27;;;;;;;;;10.00;10.00;;;;;;;;5019967;28;45328;-82
2021/08/25 09:17:30;;;;;;;;;10.50;9.00;;;;;;;;5088808;22;45502;-85
2021/08/25 09:20:06;;;;;;;;;10.00;9.50;;;;;;;;5067886;22;46631;-86
2021/08/25 09:22:31;;;;;;;;;10.00;8.00;;;;;;;;5052116;28;45437;-85
2021/08/25 09:24:56;;;;;;;;;11.00;8.67;;;;;;;;5049407;28;45521;-86
2021/08/25 09:27:22;;;;;;;;;8.33;7.00;;;;;;;;5028998;28;45516;-86
2021/08/25 09:29:54;;;;;;;;;6.75;6.75;;;;;;;;5047823;28;46382;-86
2021/08/25 09:32:21;;;;;;;;;11.00;8.50;;;;;;;;5046911;28;47230;-86
2021/08/25 09:34:51;;;;;;;;;9.25;8.25;;;;;;;;5052338;28;45488;-86
2021/08/25 09:37:17;;;;;;;;;10.00;10.00;;;;;;;;5050232;28;45473;-85
2021/08/25 09:39:49;;;;;;;;;12.00;8.75;;;;;;;;5051525;28;45567;-86
2021/08/25 09:42:16;;;;;;;;;12.75;10.00;;;;;;;;5052132;28;46364;-85
2021/08/25 09:44:42;;;;;;;;;10.50;9.50;;;;;;;;5050185;28;47207;-86
2021/08/25 09:47:07;;;;;;;;;9.25;8.75;;;;;;;;5035157;28;45420;-86
2021/08/25 09:49:32;;;;;;;;;10.67;10.67;;;;;;;;5050555;28;45596;-86
2021/08/25 09:51:57;;;;;;;;;11.75;8.50;;;;;;;;5049858;28;46422;-86
2021/08/25 09:54:22;;;;;;;;;13.00;9.00;;;;;;;;5054103;28;46815;-86
2021/08/25 09:56:51;;;;;;;;;9.33;9.33;;;;;;;;5051720;28;45661;-85
2021/08/25 09:59:16;;;;;;;;;7.25;7.25;;;;;;;;5050962;28;45732;-86
2021/08/25 10:01:41;;;;;;;;;9.67;9.00;;;;;;;;5051329;28;45522;-86
2021/08/25 10:04:11;;;;;;;;;9.75;9.50;;;;;;;;5048877;28;45654;-86
2021/08/25 10:06:38;;;;;;;;;10.00;10.00;;;;;;;;5053119;28;46068;-86
2021/08/25 10:09:05;;;;;;;;;11.25;9.50;;;;;;;;5050730;28;45406;-85
2021/08/25 10:11:31;;;;;;;;;12.00;8.50;;;;;;;;5050416;28;46916;-86
2021/08/25 10:13:56;;;;;;;;;12.50;8.00;;;;;;;;5051972;28;45835;-86
2021/08/25 10:16:42;;;;;;;;;10.25;7.75;;;;;;;;5053151;28;45378;-86
2021/08/25 10:19:26;;;;;;;;;9.00;9.00;;;;;;;;5054548;28;48270;-85
2021/08/25 10:21:52;;;;;;;;;10.75;7.50;;;;;;;;5051090;28;47540;-85
2021/08/25 10:24:18;;;;;;;;;8.00;8.00;;;;;;;;5039487;28;45683;-85
2021/08/25 10:26:59;;;;;;;;;9.75;8.00;;;;;;;;5055095;28;45389;-86
2021/08/25 10:29:24;;;;;;;;;7.50;7.00;;;;;;;;5051276;28;45525;-86
2021/08/25 10:31:50;;;;;;;;;8.50;8.00;;;;;;;;5054486;28;46651;-85
2021/08/25 10:34:18;;;;;;;;;7.00;6.67;;;;;;;;5054346;28;45801;-86
2021/08/25 10:36:43;;;;;;;;;8.00;7.00;;;;;;;;5035483;28;45442;-86
2021/08/25 10:39:27;;;;;;;;;9.00;9.00;;;;;;;;5054625;28;45404;-86
2021/08/25 10:41:52;;;;;;;;;8.00;8.00;;;;;;;;5034253;28;48630;-86
2021/08/25 10:44:44;;;;;;;;;11.00;8.00;;;;;;;;5053791;28;45474;-86
2021/08/25 10:47:11;;;;;;;;;10.75;8.75;;;;;;;;5050932;28;45291;-86
2021/08/25 10:49:37;;;;;;;;;9.50;9.50;;;;;;;;5053141;28;45642;-86
2021/08/25 10:52:06;;;;;;;;;10.50;10.50;;;;;;;;5047877;28;45537;-86
2021/08/25 10:54:33;;;;;;;;;8.50;8.50;;;;;;;;5055360;28;45559;-85
2021/08/25 10:57:06;;;;;;;;;7.00;7.00;;;;;;;;5053224;28;45503;-86
2021/08/25 10:59:31;;;;;;;;;10.75;7.00;;;;;;;;5049938;28;45234;-86
2021/08/25 11:01:59;;;;;;;;;8.67;7.33;;;;;;;;5055803;28;45537;-86
2021/08/25 11:04:24;;;;;;;;;10.75;8.50;;;;;;;;5055024;28;45666;-86
2021/08/25 11:06:55;;;;;;;;;7.00;6.00;;;;;;;;5053608;28;46934;-85
2021/08/25 11:09:23;;;;;;;;;7.50;6.75;;;;;;;;5071281;22;45500;-83
2021/08/25 11:11:51;;;;;;;;;6.75;6.25;;;;;;;;5051794;27;45632;-80
2021/08/25 11:14:20;;;;;;;;;7.75;7.50;;;;;;;;5049551;28;45797;-83
2021/08/25 11:16:46;;;;;;;;;10.50;7.50;;;;;;;;5052044;28;45970;-81
2021/08/25 11:19:21;;;;;;;;;11.00;10.25;;;;;;;;5049507;27;45870;-82
2021/08/25 11:21:47;;;;;;;;;9.50;7.00;;;;;;;;5052448;28;45897;-83
2021/08/25 11:24:12;;;;;;;;;9.75;8.00;;;;;;;;5058102;27;45574;-82
2021/08/25 11:26:37;;;;;;;;;7.67;7.67;;;;;;;;5055660;28;45601;-82
2021/08/25 11:29:04;;;;;;;;;10.33;8.33;;;;;;;;5055146;27;45602;-83
2021/08/25 11:31:30;;;;;;;;;8.00;7.25;;;;;;;;5048284;28;46222;-83
2021/08/25 11:33:55;;;;;;;;;8.75;8.25;;;;;;;;5064202;28;45574;-82
2021/08/25 11:36:20;;;;;;;;;8.00;8.00;;;;;;;;5053089;28;45685;-82
2021/08/25 11:38:45;;;;;;;;;8.00;6.67;;;;;;;;5049247;27;45735;-82
2021/08/25 11:41:11;;;;;;;;;8.75;6.25;;;;;;;;5058176;28;47392;-82
2021/08/25 11:43:45;;;;;;;;;7.50;7.50;;;;;;;;5049829;27;45471;-83
2021/08/25 11:46:11;;;;;;;;;7.75;7.00;;;;;;;;5048947;27;45559;-83
2021/08/25 11:48:36;;;;;;;;;9.33;9.33;;;;;;;;5051341;28;47984;-80
2021/08/25 11:51:01;;;;;;;;;8.25;7.00;;;;;;;;5048619;28;46496;-83
2021/08/25 11:53:28;;;;;;;;;9.00;8.00;;;;;;;;5048199;27;45645;-83
2021/08/25 11:55:55;;;;;;;;;9.50;9.50;;;;;;;;5057248;27;45371;-86
2021/08/25 11:58:27;;;;;;;;;9.00;8.00;;;;;;;;5053575;28;57330;-85
2021/08/25 12:00:53;;;;;;;;;8.50;8.50;;;;;;;;5047049;27;46244;-85
2021/08/25 12:03:18;;;;;;;;;7.75;7.75;;;;;;;;5066869;27;45688;-85
2021/08/25 12:05:52;;;;;;;;;11.00;8.25;;;;;;;;5046829;28;46862;-83
2021/08/25 12:08:17;;;;;;;;;6.75;6.50;;;;;;;;5052264;28;45511;-79
2021/08/25 12:10:46;;;;;;;;;8.25;8.25;;;;;;;;5051300;28;45657;-78
2021/08/25 12:13:29;;;;;;;;;9.75;5.75;;;;;;;;5046921;27;45944;-80
2021/08/25 12:15:56;;;;;;;;;7.50;6.50;;;;;;;;5046007;28;45623;-82
2021/08/25 12:18:23;;;;;;;;;8.75;8.00;;;;;;;;5062990;27;45588;-82
2021/08/25 12:20:52;;;;;;;;;11.00;8.50;;;;;;;;5046967;27;45644;-82
2021/08/25 12:23:21;;;;;;;;;11.25;8.25;;;;;;;;5048572;28;45551;-84
2021/08/25 12:25:48;;;;;;;;;8.50;8.25;;;;;;;;5054455;27;46336;-80
2021/08/25 12:28:28;;;;;;;;;11.75;10.00;;;;;;;;5048986;28;52329;-80
2021/08/25 12:30:54;;;;;;;;;10.00;8.75;;;;;;;;5046574;28;46224;-83
2021/08/25 12:33:28;;;;;;;;;8.50;6.00;;;;;;;;5051747;27;45509;-80
2021/08/25 12:35:53;;;;;;;;;8.75;6.50;;;;;;;;5050101;27;45655;-80
2021/08/25 12:38:28;;;;;;;;;10.25;6.25;;;;;;;;5047250;28;46165;-81
2021/08/25 12:40:53;;;;;;;;;9.75;8.50;;;;;;;;5065581;28;48302;-80
2021/08/25 12:43:18;;;;;;;;;9.00;7.33;;;;;;;;5064893;27;47588;-81
2021/08/25 12:45:43;;;;;;;;;7.75;7.75;;;;;;;;5050823;28;45528;-82
2021/08/25 12:48:09;;;;;;;;;8.67;8.67;;;;;;;;5047347;28;45742;-80
2021/08/25 12:50:34;;;;;;;;;6.25;6.25;;;;;;;;5046428;28;46134;-80
2021/08/25 12:52:59;;;;;;;;;10.50;8.50;;;;;;;;5049836;27;45529;-79
2021/08/25 12:55:24;;;;;;;;;10.00;7.50;;;;;;;;5051164;27;45568;-80
2021/08/25 12:57:50;;;;;;;;;8.00;6.75;;;;;;;;5050920;28;45546;-81
2021/08/25 13:00:15;;;;;;;;;9.75;8.00;;;;;;;;5050206;28;46212;-80
2021/08/25 13:02:41;;;;;;;;;10.75;8.00;;;;;;;;5047906;28;46307;-81
2021/08/25 13:05:07;;;;;;;;;7.75;7.75;;;;;;;;5049172;28;45577;-83
2021/08/25 13:07:32;;;;;;;;;9.25;7.00;;;;;;;;5058182;27;45790;-83
2021/08/25 13:09:57;;;;;;;;;8.50;7.00;;;;;;;;5052257;27;47831;-82
2021/08/25 13:12:22;;;;;;;;;9.25;8.50;;;;;;;;5051165;28;46177;-79
2021/08/25 13:14:48;;;;;;;;;10.00;9.00;;;;;;;;5048856;28;45566;-81
2021/08/25 13:17:13;;;;;;;;;9.00;5.75;;;;;;;;5052230;27;45589;-82
2021/08/25 13:19:38;;;;;;;;;13.00;9.75;;;;;;;;5046855;28;45608;-84
2021/08/25 13:22:03;;;;;;;;;10.00;8.00;;;;;;;;5053340;28;45663;-83
2021/08/25 13:24:29;;;;;;;;;8.67;7.67;;;;;;;;5052197;28;46484;-82
2021/08/25 13:26:54;;;;;;;;;8.50;8.00;;;;;;;;5047234;27;45682;-82
2021/08/25 13:29:19;;;;;;;;;8.00;8.00;;;;;;;;5047962;28;47967;-83
2021/08/25 13:31:44;;;;;;;;;10.00;7.67;;;;;;;;5058313;28;45473;-82
2021/08/25 13:34:10;;;;;;;;;9.33;7.33;;;;;;;;5060611;28;48553;-82
2021/08/25 13:36:35;;;;;;;;;9.00;7.25;;;;;;;;5049583;28;45845;-82
2021/08/25 13:39:00;;;;;;;;;11.00;8.00;;;;;;;;5047494;28;47440;-82
2021/08/25 13:41:25;;;;;;;;;8.00;7.00;;;;;;;;5049144;27;45467;-82
2021/08/25 13:43:51;;;;;;;;;8.33;8.33;;;;;;;;5055277;27;45531;-82
2021/08/25 13:46:16;;;;;;;;;8.00;8.00;;;;;;;;5044130;28;45427;-82
2021/08/25 13:48:41;;;;;;;;;13.25;10.00;;;;;;;;5050245;28;46466;-82
2021/08/25 13:51:08;;;;;;;;;10.50;8.75;;;;;;;;5044710;28;45704;-82
2021/08/25 13:53:33;;;;;;;;;8.75;8.00;;;;;;;;5048372;28;45377;-82
2021/08/25 13:55:58;;;;;;;;;8.00;8.00;;;;;;;;5049839;28;45437;-83
2021/08/25 13:58:23;;;;;;;;;8.50;7.25;;;;;;;;5046142;28;47806;-83
2021/08/25 14:00:49;;;;;;;;;7.67;7.00;;;;;;;;5050804;27;45643;-83
2021/08/25 14:03:14;;;;;;;;;9.00;8.00;;;;;;;;5050355;28;46807;-81
2021/08/25 14:05:39;;;;;;;;;7.00;6.00;;;;;;;;5044571;28;45714;-84
2021/08/25 14:08:05;;;;;;;;;10.33;8.00;;;;;;;;5048764;27;46298;-82
2021/08/25 14:10:30;;;;;;;;;7.25;7.00;;;;;;;;5045267;28;45474;-83
2021/08/25 14:12:56;;;;;;;;;13.00;8.00;;;;;;;;5059564;28;45513;-82
2021/08/25 14:15:21;;;;;;;;;8.00;7.00;;;;;;;;5052432;28;45632;-83
2021/08/25 14:17:46;;;;;;;;;8.25;7.50;;;;;;;;5047316;27;45643;-83
2021/08/25 14:20:14;;;;;;;;;10.67;9.00;;;;;;;;5050610;28;45636;-87
2021/08/25 14:22:39;;;;;;;;;9.25;9.00;;;;;;;;5048172;28;45721;-82
2021/08/25 14:25:04;;;;;;;;;6.67;6.67;;;;;;;;5046508;28;45692;-83
2021/08/25 14:27:29;;;;;;;;;7.00;7.00;;;;;;;;5049846;27;46584;-84
2021/08/25 14:29:55;;;;;;;;;7.00;6.33;;;;;;;;5047702;28;45516;-83
2021/08/25 14:32:20;;;;;;;;;9.33;8.00;;;;;;;;5047392;28;48761;-86
2021/08/25 14:34:45;;;;;;;;;8.33;8.33;;;;;;;;5051090;27;48257;-82
2021/08/25 14:37:10;;;;;;;;;11.00;10.00;;;;;;;;5044772;28;47858;-83
2021/08/25 14:39:35;;;;;;;;;8.33;8.00;;;;;;;;5055101;28;45687;-84
2021/08/25 14:42:01;;;;;;;;;11.67;9.67;;;;;;;;5049543;28;45637;-82
2021/08/25 14:44:26;;;;;;;;;10.00;10.00;;;;;;;;5046643;28;45959;-83
2021/08/25 14:46:51;;;;;;;;;9.75;8.50;;;;;;;;5048167;28;45516;-82
2021/08/25 14:49:20;;;;;;;;;10.75;8.50;;;;;;;;5045405;28;45519;-83
2021/08/25 14:51:45;;;;;;;;;10.00;7.50;;;;;;;;5048549;27;45551;-82
2021/08/25 14:54:10;;;;;;;;;10.67;9.67;;;;;;;;5046625;27;45405;-83